sensor_id;sensor_type;location;lat;lon;timestamp;temperature;humidity
8422;DHT22;4248;48.196;10.924;2023-04-15T00:00:08;6.80;52.00
8422;DHT22;4248;48.196;10.924;2023-04-15T00:02:34;6.80;52.00
8422;DHT22;4248;48.196;10.924;2023-04-15T00:05:01;6.80;52.00
8422;DHT22;4248;48.196;10.924;2023-04-15T00:07:27;6.80;52.10
8422;DHT22;4248;48.196;10.924;2023-04-15T00:09:54;6.80;52.20
8422;DHT22;4248;48.196;10.924;2023-04-15T00:12:22;6.80;52.40
8422;DHT22;4248;48.196;10.924;2023-04-15T00:14:48;6.70;52.60
8422;DHT22;4248;48.196;10.924;2023-04-15T00:17:14;6.70;52.80
8422;DHT22;4248;48.196;10.924;2023-04-15T00:19:40;6.60;52.80
8422;DHT22;4248;48.196;10.924;2023-04-15T00:22:06;6.70;53.00
8422;DHT22;4248;48.196;10.924;2023-04-15T00:24:32;6.60;53.00
8422;DHT22;4248;48.196;10.924;2023-04-15T00:26:58;6.60;53.10
8422;DHT22;4248;48.196;10.924;2023-04-15T00:29:24;6.60;53.20
8422;DHT22;4248;48.196;10.924;2023-04-15T00:31:50;6.50;53.30
8422;DHT22;4248;48.196;10.924;2023-04-15T00:34:16;6.50;53.50
8422;DHT22;4248;48.196;10.924;2023-04-15T00:36:42;6.50;53.80
8422;DHT22;4248;48.196;10.924;2023-04-15T00:39:08;6.40;53.70
8422;DHT22;4248;48.196;10.924;2023-04-15T00:41:33;6.40;53.90
8422;DHT22;4248;48.196;10.924;2023-04-15T00:44:00;6.30;54.00
8422;DHT22;4248;48.196;10.924;2023-04-15T00:46:28;6.30;54.30
8422;DHT22;4248;48.196;10.924;2023-04-15T00:48:55;6.20;54.40
8422;DHT22;4248;48.196;10.924;2023-04-15T00:51:21;6.20;54.50
8422;DHT22;4248;48.196;10.924;2023-04-15T00:53:47;6.20;54.70
8422;DHT22;4248;48.196;10.924;2023-04-15T00:56:13;6.10;55.90
8422;DHT22;4248;48.196;10.924;2023-04-15T00:58:39;6.10;54.80
8422;DHT22;4248;48.196;10.924;2023-04-15T01:01:04;6.00;55.00
8422;DHT22;4248;48.196;10.924;2023-04-15T01:03:30;6.00;55.10
8422;DHT22;4248;48.196;10.924;2023-04-15T01:05:56;6.00;55.10
8422;DHT22;4248;48.196;10.924;2023-04-15T01:08:28;5.90;55.30
8422;DHT22;4248;48.196;10.924;2023-04-15T01:10:55;5.90;55.40
8422;DHT22;4248;48.196;10.924;2023-04-15T01:13:23;5.90;55.40
8422;DHT22;4248;48.196;10.924;2023-04-15T01:15:50;5.80;55.30
8422;DHT22;4248;48.196;10.924;2023-04-15T01:18:17;5.80;55.70
8422;DHT22;4248;48.196;10.924;2023-04-15T01:20:43;5.80;55.80
8422;DHT22;4248;48.196;10.924;2023-04-15T01:23:09;5.70;55.60
8422;DHT22;4248;48.196;10.924;2023-04-15T01:25:34;5.70;55.60
8422;DHT22;4248;48.196;10.924;2023-04-15T01:28:00;5.70;55.70
8422;DHT22;4248;48.196;10.924;2023-04-15T01:30:26;5.80;55.60
8422;DHT22;4248;48.196;10.924;2023-04-15T01:32:52;5.70;55.50
8422;DHT22;4248;48.196;10.924;2023-04-15T01:35:18;5.70;55.50
8422;DHT22;4248;48.196;10.924;2023-04-15T01:37:44;5.80;55.50
8422;DHT22;4248;48.196;10.924;2023-04-15T01:40:10;5.80;55.50
8422;DHT22;4248;48.196;10.924;2023-04-15T01:42:36;5.70;55.50
8422;DHT22;4248;48.196;10.924;2023-04-15T01:45:03;5.70;55.50
8422;DHT22;4248;48.196;10.924;2023-04-15T01:47:28;5.70;55.50
8422;DHT22;4248;48.196;10.924;2023-04-15T01:49:54;5.70;55.60
8422;DHT22;4248;48.196;10.924;2023-04-15T01:52:20;5.70;56.00
8422;DHT22;4248;48.196;10.924;2023-04-15T01:54:46;5.60;56.10
8422;DHT22;4248;48.196;10.924;2023-04-15T01:57:11;5.60;56.10
8422;DHT22;4248;48.196;10.924;2023-04-15T01:59:37;5.60;56.10
8422;DHT22;4248;48.196;10.924;2023-04-15T02:02:03;5.60;56.20
8422;DHT22;4248;48.196;10.924;2023-04-15T02:04:29;5.60;56.30
8422;DHT22;4248;48.196;10.924;2023-04-15T02:06:55;5.60;56.10
8422;DHT22;4248;48.196;10.924;2023-04-15T02:09:21;5.60;56.10
8422;DHT22;4248;48.196;10.924;2023-04-15T02:11:47;5.70;56.20
8422;DHT22;4248;48.196;10.924;2023-04-15T02:14:13;5.70;56.20
8422;DHT22;4248;48.196;10.924;2023-04-15T02:16:38;5.70;56.20
8422;DHT22;4248;48.196;10.924;2023-04-15T02:19:04;5.60;56.10
8422;DHT22;4248;48.196;10.924;2023-04-15T02:21:30;5.70;56.20
8422;DHT22;4248;48.196;10.924;2023-04-15T02:23:56;5.70;56.20
8422;DHT22;4248;48.196;10.924;2023-04-15T02:26:22;5.80;56.30
8422;DHT22;4248;48.196;10.924;2023-04-15T02:28:48;5.80;56.20
8422;DHT22;4248;48.196;10.924;2023-04-15T02:31:15;5.80;56.20
8422;DHT22;4248;48.196;10.924;2023-04-15T02:33:41;5.80;56.00
8422;DHT22;4248;48.196;10.924;2023-04-15T02:36:07;5.80;56.00
8422;DHT22;4248;48.196;10.924;2023-04-15T02:38:34;5.80;55.80
8422;DHT22;4248;48.196;10.924;2023-04-15T02:41:00;5.90;55.80
8422;DHT22;4248;48.196;10.924;2023-04-15T02:43:26;5.90;55.80
8422;DHT22;4248;48.196;10.924;2023-04-15T02:45:51;5.90;55.70
8422;DHT22;4248;48.196;10.924;2023-04-15T02:48:17;5.80;55.60
8422;DHT22;4248;48.196;10.924;2023-04-15T02:50:45;5.80;55.60
8422;DHT22;4248;48.196;10.924;2023-04-15T02:53:11;5.80;55.80
8422;DHT22;4248;48.196;10.924;2023-04-15T02:55:37;5.80;56.00
8422;DHT22;4248;48.196;10.924;2023-04-15T02:58:03;5.80;56.00
8422;DHT22;4248;48.196;10.924;2023-04-15T03:00:29;5.80;56.00
8422;DHT22;4248;48.196;10.924;2023-04-15T03:03:04;5.70;56.10
8422;DHT22;4248;48.196;10.924;2023-04-15T03:05:31;5.70;56.10
8422;DHT22;4248;48.196;10.924;2023-04-15T03:07:56;5.70;56.20
8422;DHT22;4248;48.196;10.924;2023-04-15T03:10:22;5.70;56.30
8422;DHT22;4248;48.196;10.924;2023-04-15T03:12:48;5.70;56.20
8422;DHT22;4248;48.196;10.924;2023-04-15T03:15:14;5.70;56.00
8422;DHT22;4248;48.196;10.924;2023-04-15T03:17:39;5.70;56.10
8422;DHT22;4248;48.196;10.924;2023-04-15T03:20:06;5.70;56.20
8422;DHT22;4248;48.196;10.924;2023-04-15T03:22:32;5.70;56.30
8422;DHT22;4248;48.196;10.924;2023-04-15T03:24:57;5.70;56.20
8422;DHT22;4248;48.196;10.924;2023-04-15T03:27:24;5.70;56.20
8422;DHT22;4248;48.196;10.924;2023-04-15T03:29:50;5.70;56.30
8422;DHT22;4248;48.196;10.924;2023-04-15T03:32:16;5.60;56.30
8422;DHT22;4248;48.196;10.924;2023-04-15T03:34:42;5.70;56.30
8422;DHT22;4248;48.196;10.924;2023-04-15T03:37:08;5.80;56.50
8422;DHT22;4248;48.196;10.924;2023-04-15T03:39:34;5.70;56.20
8422;DHT22;4248;48.196;10.924;2023-04-15T03:42:00;5.70;56.20
8422;DHT22;4248;48.196;10.924;2023-04-15T03:44:26;5.70;56.10
8422;DHT22;4248;48.196;10.924;2023-04-15T03:46:52;5.70;56.10
8422;DHT22;4248;48.196;10.924;2023-04-15T03:49:18;5.70;56.10
8422;DHT22;4248;48.196;10.924;2023-04-15T03:51:44;5.70;56.00
8422;DHT22;4248;48.196;10.924;2023-04-15T03:54:09;5.70;56.00
8422;DHT22;4248;48.196;10.924;2023-04-15T03:56:36;5.70;55.90
8422;DHT22;4248;48.196;10.924;2023-04-15T03:59:01;5.70;57.10
8422;DHT22;4248;48.196;10.924;2023-04-15T04:01:27;5.70;56.00
8422;DHT22;4248;48.196;10.924;2023-04-15T04:03:53;5.70;56.00
8422;DHT22;4248;48.196;10.924;2023-04-15T04:06:18;5.70;55.90
8422;DHT22;4248;48.196;10.924;2023-04-15T04:08:44;5.60;55.80
8422;DHT22;4248;48.196;10.924;2023-04-15T04:11:10;5.60;56.00
8422;DHT22;4248;48.196;10.924;2023-04-15T04:13:36;5.50;56.10
8422;DHT22;4248;48.196;10.924;2023-04-15T04:16:01;5.50;56.20
8422;DHT22;4248;48.196;10.924;2023-04-15T04:18:29;5.50;56.10
8422;DHT22;4248;48.196;10.924;2023-04-15T04:20:55;5.50;56.00
8422;DHT22;4248;48.196;10.924;2023-04-15T04:23:21;5.60;56.20
8422;DHT22;4248;48.196;10.924;2023-04-15T04:25:46;5.50;56.20
8422;DHT22;4248;48.196;10.924;2023-04-15T04:28:12;5.50;56.00
8422;DHT22;4248;48.196;10.924;2023-04-15T04:30:38;5.60;56.10
8422;DHT22;4248;48.196;10.924;2023-04-15T04:33:04;5.50;55.90
8422;DHT22;4248;48.196;10.924;2023-04-15T04:35:29;5.50;55.90
8422;DHT22;4248;48.196;10.924;2023-04-15T04:37:55;5.50;56.10
8422;DHT22;4248;48.196;10.924;2023-04-15T04:40:20;5.50;55.80
8422;DHT22;4248;48.196;10.924;2023-04-15T04:42:46;5.50;55.70
8422;DHT22;4248;48.196;10.924;2023-04-15T04:45:12;5.50;55.80
8422;DHT22;4248;48.196;10.924;2023-04-15T04:47:37;5.50;55.80
8422;DHT22;4248;48.196;10.924;2023-04-15T04:50:03;5.50;56.00
8422;DHT22;4248;48.196;10.924;2023-04-15T04:52:29;5.50;56.00
8422;DHT22;4248;48.196;10.924;2023-04-15T04:54:54;5.50;55.80
8422;DHT22;4248;48.196;10.924;2023-04-15T04:57:20;5.50;55.50
8422;DHT22;4248;48.196;10.924;2023-04-15T04:59:46;5.50;55.50
8422;DHT22;4248;48.196;10.924;2023-04-15T05:02:11;5.70;55.70
8422;DHT22;4248;48.196;10.924;2023-04-15T05:04:37;5.60;55.50
8422;DHT22;4248;48.196;10.924;2023-04-15T05:07:03;5.60;55.40
8422;DHT22;4248;48.196;10.924;2023-04-15T05:09:28;5.60;55.30
8422;DHT22;4248;48.196;10.924;2023-04-15T05:11:56;5.70;55.00
8422;DHT22;4248;48.196;10.924;2023-04-15T05:14:22;5.80;54.90
8422;DHT22;4248;48.196;10.924;2023-04-15T05:16:47;5.90;54.50
8422;DHT22;4248;48.196;10.924;2023-04-15T05:19:13;6.00;54.20
8422;DHT22;4248;48.196;10.924;2023-04-15T05:21:38;6.20;55.20
8422;DHT22;4248;48.196;10.924;2023-04-15T05:24:04;6.30;53.90
8422;DHT22;4248;48.196;10.924;2023-04-15T05:26:30;6.40;53.80
8422;DHT22;4248;48.196;10.924;2023-04-15T05:28:56;6.50;53.40
8422;DHT22;4248;48.196;10.924;2023-04-15T05:31:21;6.70;53.30
8422;DHT22;4248;48.196;10.924;2023-04-15T05:33:47;6.80;53.00
8422;DHT22;4248;48.196;10.924;2023-04-15T05:36:12;6.90;52.80
8422;DHT22;4248;48.196;10.924;2023-04-15T05:38:38;7.00;52.70
8422;DHT22;4248;48.196;10.924;2023-04-15T05:41:04;7.10;52.40
8422;DHT22;4248;48.196;10.924;2023-04-15T05:43:29;7.20;52.40
8422;DHT22;4248;48.196;10.924;2023-04-15T05:46:08;7.20;52.30
8422;DHT22;4248;48.196;10.924;2023-04-15T05:48:34;7.20;52.60
8422;DHT22;4248;48.196;10.924;2023-04-15T05:51:00;7.10;53.10
8422;DHT22;4248;48.196;10.924;2023-04-15T05:53:26;7.00;53.20
8422;DHT22;4248;48.196;10.924;2023-04-15T05:56:02;6.90;53.30
8422;DHT22;4248;48.196;10.924;2023-04-15T05:58:38;6.90;53.40
8422;DHT22;4248;48.196;10.924;2023-04-15T06:01:16;6.90;53.50
8422;DHT22;4248;48.196;10.924;2023-04-15T06:03:42;6.90;53.20
8422;DHT22;4248;48.196;10.924;2023-04-15T06:06:08;6.90;53.30
8422;DHT22;4248;48.196;10.924;2023-04-15T06:08:34;6.80;53.20
8422;DHT22;4248;48.196;10.924;2023-04-15T06:10:59;6.80;53.10
8422;DHT22;4248;48.196;10.924;2023-04-15T06:13:25;6.90;52.70
8422;DHT22;4248;48.196;10.924;2023-04-15T06:15:51;7.00;52.50
8422;DHT22;4248;48.196;10.924;2023-04-15T06:18:17;7.10;52.20
8422;DHT22;4248;48.196;10.924;2023-04-15T06:20:44;7.20;52.00
8422;DHT22;4248;48.196;10.924;2023-04-15T06:23:10;7.30;51.60
8422;DHT22;4248;48.196;10.924;2023-04-15T06:25:35;7.40;51.10
8422;DHT22;4248;48.196;10.924;2023-04-15T06:28:01;7.60;50.60
8422;DHT22;4248;48.196;10.924;2023-04-15T06:30:26;7.70;50.60
8422;DHT22;4248;48.196;10.924;2023-04-15T06:32:52;7.90;50.90
8422;DHT22;4248;48.196;10.924;2023-04-15T06:35:19;8.00;50.10
8422;DHT22;4248;48.196;10.924;2023-04-15T06:37:44;8.20;49.80
8422;DHT22;4248;48.196;10.924;2023-04-15T06:40:10;8.30;49.20
8422;DHT22;4248;48.196;10.924;2023-04-15T06:42:36;8.50;50.20
8422;DHT22;4248;48.196;10.924;2023-04-15T06:45:02;8.50;48.90
8422;DHT22;4248;48.196;10.924;2023-04-15T06:47:28;8.60;48.80
8422;DHT22;4248;48.196;10.924;2023-04-15T06:49:54;8.70;48.60
8422;DHT22;4248;48.196;10.924;2023-04-15T06:52:19;8.80;48.30
8422;DHT22;4248;48.196;10.924;2023-04-15T06:54:45;8.90;47.90
8422;DHT22;4248;48.196;10.924;2023-04-15T06:57:12;9.00;47.60
8422;DHT22;4248;48.196;10.924;2023-04-15T06:59:38;9.10;47.30
8422;DHT22;4248;48.196;10.924;2023-04-15T07:02:04;9.20;47.10
8422;DHT22;4248;48.196;10.924;2023-04-15T07:04:29;9.20;46.80
8422;DHT22;4248;48.196;10.924;2023-04-15T07:06:55;9.20;46.60
8422;DHT22;4248;48.196;10.924;2023-04-15T07:09:22;9.20;46.10
8422;DHT22;4248;48.196;10.924;2023-04-15T07:11:47;9.10;46.40
8422;DHT22;4248;48.196;10.924;2023-04-15T07:14:13;9.10;46.10
8422;DHT22;4248;48.196;10.924;2023-04-15T07:16:39;9.10;46.10
8422;DHT22;4248;48.196;10.924;2023-04-15T07:19:05;9.10;45.80
8422;DHT22;4248;48.196;10.924;2023-04-15T07:21:30;9.30;45.60
8422;DHT22;4248;48.196;10.924;2023-04-15T07:23:56;9.20;45.30
8422;DHT22;4248;48.196;10.924;2023-04-15T07:26:23;9.30;45.40
8422;DHT22;4248;48.196;10.924;2023-04-15T07:28:49;9.40;45.10
8422;DHT22;4248;48.196;10.924;2023-04-15T07:31:14;9.60;44.60
8422;DHT22;4248;48.196;10.924;2023-04-15T07:33:41;9.80;44.10
8422;DHT22;4248;48.196;10.924;2023-04-15T07:36:06;9.90;43.30
8422;DHT22;4248;48.196;10.924;2023-04-15T07:38:32;10.00;41.80
8422;DHT22;4248;48.196;10.924;2023-04-15T07:40:58;10.10;41.60
8422;DHT22;4248;48.196;10.924;2023-04-15T07:43:24;10.10;41.20
8422;DHT22;4248;48.196;10.924;2023-04-15T07:45:49;10.10;41.10
8422;DHT22;4248;48.196;10.924;2023-04-15T07:48:15;10.10;40.50
8422;DHT22;4248;48.196;10.924;2023-04-15T07:50:41;9.90;41.10
8422;DHT22;4248;48.196;10.924;2023-04-15T07:53:07;9.80;40.60
8422;DHT22;4248;48.196;10.924;2023-04-15T07:55:32;9.90;40.90
8422;DHT22;4248;48.196;10.924;2023-04-15T07:57:58;10.10;39.50
8422;DHT22;4248;48.196;10.924;2023-04-15T08:00:24;10.10;38.60
8422;DHT22;4248;48.196;10.924;2023-04-15T08:02:51;10.30;39.20
8422;DHT22;4248;48.196;10.924;2023-04-15T08:05:18;10.50;38.90
8422;DHT22;4248;48.196;10.924;2023-04-15T08:07:44;10.40;38.80
8422;DHT22;4248;48.196;10.924;2023-04-15T08:10:11;10.40;38.80
8422;DHT22;4248;48.196;10.924;2023-04-15T08:12:37;10.40;38.40
8422;DHT22;4248;48.196;10.924;2023-04-15T08:15:03;10.20;36.60
8422;DHT22;4248;48.196;10.924;2023-04-15T08:17:29;10.00;37.20
8422;DHT22;4248;48.196;10.924;2023-04-15T08:19:54;9.90;37.80
8422;DHT22;4248;48.196;10.924;2023-04-15T08:22:20;9.90;38.50
8422;DHT22;4248;48.196;10.924;2023-04-15T08:24:45;10.00;37.90
8422;DHT22;4248;48.196;10.924;2023-04-15T08:27:11;10.50;38.30
8422;DHT22;4248;48.196;10.924;2023-04-15T08:29:37;10.60;36.60
8422;DHT22;4248;48.196;10.924;2023-04-15T08:32:02;10.70;36.20
8422;DHT22;4248;48.196;10.924;2023-04-15T08:34:28;10.60;36.10
8422;DHT22;4248;48.196;10.924;2023-04-15T08:36:55;10.50;36.40
8422;DHT22;4248;48.196;10.924;2023-04-15T08:39:21;10.60;36.60
8422;DHT22;4248;48.196;10.924;2023-04-15T08:44:23;10.60;36.40
8422;DHT22;4248;48.196;10.924;2023-04-15T08:46:50;10.70;36.60
8422;DHT22;4248;48.196;10.924;2023-04-15T08:49:16;10.70;36.60
8422;DHT22;4248;48.196;10.924;2023-04-15T08:51:44;10.60;36.10
8422;DHT22;4248;48.196;10.924;2023-04-15T08:54:09;10.60;36.10
8422;DHT22;4248;48.196;10.924;2023-04-15T08:56:35;10.60;36.40
8422;DHT22;4248;48.196;10.924;2023-04-15T08:59:02;10.70;36.50
8422;DHT22;4248;48.196;10.924;2023-04-15T09:01:28;10.80;36.70
8422;DHT22;4248;48.196;10.924;2023-04-15T09:03:55;10.90;36.70
8422;DHT22;4248;48.196;10.924;2023-04-15T09:06:22;11.00;36.60
8422;DHT22;4248;48.196;10.924;2023-04-15T09:08:48;11.10;36.10
8422;DHT22;4248;48.196;10.924;2023-04-15T09:11:14;10.90;35.60
8422;DHT22;4248;48.196;10.924;2023-04-15T09:13:42;10.90;35.70
8422;DHT22;4248;48.196;10.924;2023-04-15T09:16:08;11.10;35.80
8422;DHT22;4248;48.196;10.924;2023-04-15T09:18:34;11.10;35.60
8422;DHT22;4248;48.196;10.924;2023-04-15T09:21:14;11.20;35.80
8422;DHT22;4248;48.196;10.924;2023-04-15T09:23:56;11.20;35.70
8422;DHT22;4248;48.196;10.924;2023-04-15T09:26:36;11.30;35.70
8422;DHT22;4248;48.196;10.924;2023-04-15T09:29:09;11.30;35.40
8422;DHT22;4248;48.196;10.924;2023-04-15T09:31:38;11.20;34.70
8422;DHT22;4248;48.196;10.924;2023-04-15T09:34:04;11.10;34.10
8422;DHT22;4248;48.196;10.924;2023-04-15T09:36:51;11.20;33.80
8422;DHT22;4248;48.196;10.924;2023-04-15T09:39:17;11.30;32.10
8422;DHT22;4248;48.196;10.924;2023-04-15T09:41:42;11.20;32.30
8422;DHT22;4248;48.196;10.924;2023-04-15T09:44:25;11.30;32.50
8422;DHT22;4248;48.196;10.924;2023-04-15T09:46:50;11.60;32.20
8422;DHT22;4248;48.196;10.924;2023-04-15T09:49:16;11.70;31.70
8422;DHT22;4248;48.196;10.924;2023-04-15T09:51:42;11.80;31.40
8422;DHT22;4248;48.196;10.924;2023-04-15T09:54:08;11.90;31.40
8422;DHT22;4248;48.196;10.924;2023-04-15T09:56:38;12.00;30.90
8422;DHT22;4248;48.196;10.924;2023-04-15T09:59:07;11.90;30.90
8422;DHT22;4248;48.196;10.924;2023-04-15T10:01:33;11.80;30.50
8422;DHT22;4248;48.196;10.924;2023-04-15T10:04:02;11.90;30.50
8422;DHT22;4248;48.196;10.924;2023-04-15T10:06:29;12.00;29.40
8422;DHT22;4248;48.196;10.924;2023-04-15T10:08:56;12.00;29.50
8422;DHT22;4248;48.196;10.924;2023-04-15T10:11:22;12.20;29.40
8422;DHT22;4248;48.196;10.924;2023-04-15T10:13:49;12.30;27.80
8422;DHT22;4248;48.196;10.924;2023-04-15T10:16:18;12.30;27.30
8422;DHT22;4248;48.196;10.924;2023-04-15T10:18:45;12.40;27.40
8422;DHT22;4248;48.196;10.924;2023-04-15T10:21:12;12.70;27.20
8422;DHT22;4248;48.196;10.924;2023-04-15T10:23:44;13.00;27.40
8422;DHT22;4248;48.196;10.924;2023-04-15T10:26:11;13.10;27.30
8422;DHT22;4248;48.196;10.924;2023-04-15T10:28:37;13.30;27.80
8422;DHT22;4248;48.196;10.924;2023-04-15T10:31:04;13.50;27.30
8422;DHT22;4248;48.196;10.924;2023-04-15T10:33:30;13.70;26.70
8422;DHT22;4248;48.196;10.924;2023-04-15T10:35:56;13.90;26.70
8422;DHT22;4248;48.196;10.924;2023-04-15T10:41:19;14.00;25.90
8422;DHT22;4248;48.196;10.924;2023-04-15T10:46:36;13.80;26.30
8422;DHT22;4248;48.196;10.924;2023-04-15T10:49:10;13.80;25.90
8422;DHT22;4248;48.196;10.924;2023-04-15T10:51:45;14.00;25.80
8422;DHT22;4248;48.196;10.924;2023-04-15T10:54:17;14.10;26.30
8422;DHT22;4248;48.196;10.924;2023-04-15T11:02:15;13.90;23.20
8422;DHT22;4248;48.196;10.924;2023-04-15T11:04:54;13.50;23.90
8422;DHT22;4248;48.196;10.924;2023-04-15T11:10:01;13.00;22.50
8422;DHT22;4248;48.196;10.924;2023-04-15T11:12:34;12.50;22.10
8422;DHT22;4248;48.196;10.924;2023-04-15T11:17:52;11.30;23.60
8422;DHT22;4248;48.196;10.924;2023-04-15T11:20:17;11.20;24.30
8422;DHT22;4248;48.196;10.924;2023-04-15T11:22:47;10.90;24.80
8422;DHT22;4248;48.196;10.924;2023-04-15T11:25:26;11.00;25.40
8422;DHT22;4248;48.196;10.924;2023-04-15T11:27:53;10.90;26.70
8422;DHT22;4248;48.196;10.924;2023-04-15T11:30:30;10.60;27.70
8422;DHT22;4248;48.196;10.924;2023-04-15T11:33:01;10.40;29.10
8422;DHT22;4248;48.196;10.924;2023-04-15T11:35:28;10.40;29.50
8422;DHT22;4248;48.196;10.924;2023-04-15T11:37:54;10.60;29.90
8422;DHT22;4248;48.196;10.924;2023-04-15T11:40:28;10.70;30.20
8422;DHT22;4248;48.196;10.924;2023-04-15T11:43:13;10.80;30.50
8422;DHT22;4248;48.196;10.924;2023-04-15T11:45:59;11.00;30.50
8422;DHT22;4248;48.196;10.924;2023-04-15T11:48:33;11.30;30.30
8422;DHT22;4248;48.196;10.924;2023-04-15T11:51:02;11.60;29.70
8422;DHT22;4248;48.196;10.924;2023-04-15T11:53:47;11.70;29.40
8422;DHT22;4248;48.196;10.924;2023-04-15T11:56:20;11.90;29.20
8422;DHT22;4248;48.196;10.924;2023-04-15T11:58:48;12.00;29.10
8422;DHT22;4248;48.196;10.924;2023-04-15T12:01:16;12.20;28.50
8422;DHT22;4248;48.196;10.924;2023-04-15T12:03:44;12.40;27.80
8422;DHT22;4248;48.196;10.924;2023-04-15T12:06:19;12.50;27.90
8422;DHT22;4248;48.196;10.924;2023-04-15T12:16:22;13.30;26.90
8422;DHT22;4248;48.196;10.924;2023-04-15T12:18:56;13.40;26.60
8422;DHT22;4248;48.196;10.924;2023-04-15T12:21:25;13.50;26.50
8422;DHT22;4248;48.196;10.924;2023-04-15T12:26:17;14.10;26.10
8422;DHT22;4248;48.196;10.924;2023-04-15T12:29:14;14.50;25.90
8422;DHT22;4248;48.196;10.924;2023-04-15T12:32:04;14.80;25.30
8422;DHT22;4248;48.196;10.924;2023-04-15T12:34:32;14.70;23.60
8422;DHT22;4248;48.196;10.924;2023-04-15T12:37:00;14.20;21.40
8422;DHT22;4248;48.196;10.924;2023-04-15T12:39:28;14.00;21.20
8422;DHT22;4248;48.196;10.924;2023-04-15T12:41:54;13.60;17.90
8422;DHT22;4248;48.196;10.924;2023-04-15T12:44:22;13.10;19.00
8422;DHT22;4248;48.196;10.924;2023-04-15T12:46:48;12.70;18.30
8422;DHT22;4248;48.196;10.924;2023-04-15T12:49:14;12.10;17.70
8422;DHT22;4248;48.196;10.924;2023-04-15T12:51:41;11.80;18.70
8422;DHT22;4248;48.196;10.924;2023-04-15T12:54:07;11.60;18.90
8422;DHT22;4248;48.196;10.924;2023-04-15T12:56:32;11.40;18.90
8422;DHT22;4248;48.196;10.924;2023-04-15T12:58:58;11.30;19.40
8422;DHT22;4248;48.196;10.924;2023-04-15T13:01:24;11.30;20.00
8422;DHT22;4248;48.196;10.924;2023-04-15T13:03:49;11.30;20.30
8422;DHT22;4248;48.196;10.924;2023-04-15T13:06:16;11.30;20.70
8422;DHT22;4248;48.196;10.924;2023-04-15T13:08:42;11.10;20.80
8422;DHT22;4248;48.196;10.924;2023-04-15T13:11:07;10.90;21.20
8422;DHT22;4248;48.196;10.924;2023-04-15T13:13:33;10.80;21.70
8422;DHT22;4248;48.196;10.924;2023-04-15T13:15:59;10.90;22.30
8422;DHT22;4248;48.196;10.924;2023-04-15T13:18:25;10.80;22.10
8422;DHT22;4248;48.196;10.924;2023-04-15T13:20:50;10.70;22.30
8422;DHT22;4248;48.196;10.924;2023-04-15T13:23:16;10.80;22.50
8422;DHT22;4248;48.196;10.924;2023-04-15T13:25:42;10.80;22.60
8422;DHT22;4248;48.196;10.924;2023-04-15T13:28:09;10.80;22.90
8422;DHT22;4248;48.196;10.924;2023-04-15T13:30:36;10.80;23.20
8422;DHT22;4248;48.196;10.924;2023-04-15T13:33:02;10.80;24.30
8422;DHT22;4248;48.196;10.924;2023-04-15T13:35:28;10.90;23.50
8422;DHT22;4248;48.196;10.924;2023-04-15T13:37:53;10.90;23.60
8422;DHT22;4248;48.196;10.924;2023-04-15T13:40:20;10.90;23.60
8422;DHT22;4248;48.196;10.924;2023-04-15T13:42:45;11.10;23.70
8422;DHT22;4248;48.196;10.924;2023-04-15T13:45:11;11.10;23.60
8422;DHT22;4248;48.196;10.924;2023-04-15T13:47:37;11.20;23.60
8422;DHT22;4248;48.196;10.924;2023-04-15T13:50:03;11.20;23.60
8422;DHT22;4248;48.196;10.924;2023-04-15T13:52:28;11.20;23.60
8422;DHT22;4248;48.196;10.924;2023-04-15T13:54:54;11.10;23.60
8422;DHT22;4248;48.196;10.924;2023-04-15T13:57:19;11.10;23.80
8422;DHT22;4248;48.196;10.924;2023-04-15T13:59:45;11.10;23.70
8422;DHT22;4248;48.196;10.924;2023-04-15T14:02:11;11.10;24.10
8422;DHT22;4248;48.196;10.924;2023-04-15T14:04:36;10.90;24.40
8422;DHT22;4248;48.196;10.924;2023-04-15T14:07:02;10.90;24.70
8422;DHT22;4248;48.196;10.924;2023-04-15T14:09:28;10.90;24.90
8422;DHT22;4248;48.196;10.924;2023-04-15T14:11:54;10.90;24.70
8422;DHT22;4248;48.196;10.924;2023-04-15T14:14:20;11.10;24.70
8422;DHT22;4248;48.196;10.924;2023-04-15T14:16:46;11.10;24.60
8422;DHT22;4248;48.196;10.924;2023-04-15T14:19:12;11.20;24.70
8422;DHT22;4248;48.196;10.924;2023-04-15T14:21:38;11.30;24.80
8422;DHT22;4248;48.196;10.924;2023-04-15T14:24:04;11.30;25.30
8422;DHT22;4248;48.196;10.924;2023-04-15T14:26:30;11.40;25.30
8422;DHT22;4248;48.196;10.924;2023-04-15T14:28:56;11.40;25.40
8422;DHT22;4248;48.196;10.924;2023-04-15T14:31:22;11.50;25.30
8422;DHT22;4248;48.196;10.924;2023-04-15T14:33:47;11.40;24.90
8422;DHT22;4248;48.196;10.924;2023-04-15T14:36:13;11.20;24.30
8422;DHT22;4248;48.196;10.924;2023-04-15T14:38:38;11.00;24.20
8422;DHT22;4248;48.196;10.924;2023-04-15T14:41:05;10.70;24.90
8422;DHT22;4248;48.196;10.924;2023-04-15T14:43:31;10.80;24.90
8422;DHT22;4248;48.196;10.924;2023-04-15T14:45:56;10.40;23.80
8422;DHT22;4248;48.196;10.924;2023-04-15T14:48:22;10.10;24.40
8422;DHT22;4248;48.196;10.924;2023-04-15T14:50:48;9.90;26.00
8422;DHT22;4248;48.196;10.924;2023-04-15T14:53:13;9.80;26.70
8422;DHT22;4248;48.196;10.924;2023-04-15T14:55:39;9.90;26.80
8422;DHT22;4248;48.196;10.924;2023-04-15T14:58:06;9.90;26.80
8422;DHT22;4248;48.196;10.924;2023-04-15T15:00:33;9.90;26.80
8422;DHT22;4248;48.196;10.924;2023-04-15T15:02:59;9.90;26.80
8422;DHT22;4248;48.196;10.924;2023-04-15T15:05:26;9.90;26.80
8422;DHT22;4248;48.196;10.924;2023-04-15T15:07:51;9.80;26.70
8422;DHT22;4248;48.196;10.924;2023-04-15T15:10:17;9.90;26.80
8422;DHT22;4248;48.196;10.924;2023-04-15T15:12:42;9.90;26.80
8422;DHT22;4248;48.196;10.924;2023-04-15T15:15:08;9.90;26.80
8422;DHT22;4248;48.196;10.924;2023-04-15T15:17:34;9.90;26.80
8422;DHT22;4248;48.196;10.924;2023-04-15T15:20:00;9.80;26.70
8422;DHT22;4248;48.196;10.924;2023-04-15T15:22:27;9.80;26.70
8422;DHT22;4248;48.196;10.924;2023-04-15T15:24:53;9.70;27.60
8422;DHT22;4248;48.196;10.924;2023-04-15T15:27:19;9.80;27.90
8422;DHT22;4248;48.196;10.924;2023-04-15T15:29:44;9.80;27.80
8422;DHT22;4248;48.196;10.924;2023-04-15T15:32:10;9.70;28.30
8422;DHT22;4248;48.196;10.924;2023-04-15T15:34:35;9.70;29.60
8422;DHT22;4248;48.196;10.924;2023-04-15T15:37:01;9.50;31.10
8422;DHT22;4248;48.196;10.924;2023-04-15T15:39:27;9.50;32.20
8422;DHT22;4248;48.196;10.924;2023-04-15T15:41:52;9.40;32.10
8422;DHT22;4248;48.196;10.924;2023-04-15T15:44:18;9.30;32.10
8422;DHT22;4248;48.196;10.924;2023-04-15T15:46:43;9.20;32.20
8422;DHT22;4248;48.196;10.924;2023-04-15T15:49:10;9.20;32.40
8422;DHT22;4248;48.196;10.924;2023-04-15T15:51:35;9.20;32.40
8422;DHT22;4248;48.196;10.924;2023-04-15T15:54:01;9.20;32.60
8422;DHT22;4248;48.196;10.924;2023-04-15T15:56:27;9.20;32.80
8422;DHT22;4248;48.196;10.924;2023-04-15T15:58:52;9.10;33.40
8422;DHT22;4248;48.196;10.924;2023-04-15T16:01:18;8.90;33.90
8422;DHT22;4248;48.196;10.924;2023-04-15T16:03:43;8.80;34.30
8422;DHT22;4248;48.196;10.924;2023-04-15T16:06:09;8.80;35.40
8422;DHT22;4248;48.196;10.924;2023-04-15T16:08:34;8.70;35.70
8422;DHT22;4248;48.196;10.924;2023-04-15T16:11:00;8.70;36.60
8422;DHT22;4248;48.196;10.924;2023-04-15T16:13:26;8.60;36.60
8422;DHT22;4248;48.196;10.924;2023-04-15T16:15:51;8.70;38.30
8422;DHT22;4248;48.196;10.924;2023-04-15T16:18:17;8.60;38.30
8422;DHT22;4248;48.196;10.924;2023-04-15T16:20:43;8.70;38.30